sensor_id;sensor_type;location;lat;lon;timestamp;P1;durP1;ratioP1;P2;durP2;ratioP2
79574;SDS011;69044;48.198;11.468;2023-04-06T00:01:16;15.02;;;7.60;;
79574;SDS011;69044;48.198;11.468;2023-04-06T00:03:43;11.88;;;6.22;;
79574;SDS011;69044;48.198;11.468;2023-04-06T00:06:10;12.57;;;6.95;;
79574;SDS011;69044;48.198;11.468;2023-04-06T00:08:38;14.07;;;7.72;;
79574;SDS011;69044;48.198;11.468;2023-04-06T00:11:06;11.90;;;6.55;;
79574;SDS011;69044;48.198;11.468;2023-04-06T00:13:37;15.23;;;6.82;;
79574;SDS011;69044;48.198;11.468;2023-04-06T00:16:05;14.60;;;6.78;;
79574;SDS011;69044;48.198;11.468;2023-04-06T00:18:36;11.90;;;6.68;;
79574;SDS011;69044;48.198;11.468;2023-04-06T00:21:03;13.43;;;7.18;;
79574;SDS011;69044;48.198;11.468;2023-04-06T00:23:30;13.48;;;6.95;;
79574;SDS011;69044;48.198;11.468;2023-04-06T00:25:57;12.82;;;6.95;;
79574;SDS011;69044;48.198;11.468;2023-04-06T00:28:26;11.60;;;6.43;;
79574;SDS011;69044;48.198;11.468;2023-04-06T00:30:55;10.50;;;6.35;;
79574;SDS011;69044;48.198;11.468;2023-04-06T00:33:22;15.15;;;7.25;;
79574;SDS011;69044;48.198;11.468;2023-04-06T00:35:50;13.10;;;7.03;;
79574;SDS011;69044;48.198;11.468;2023-04-06T00:38:17;12.95;;;7.15;;
79574;SDS011;69044;48.198;11.468;2023-04-06T00:40:44;13.75;;;6.50;;
79574;SDS011;69044;48.198;11.468;2023-04-06T00:43:12;10.98;;;5.97;;
79574;SDS011;69044;48.198;11.468;2023-04-06T00:45:40;13.13;;;6.78;;
79574;SDS011;69044;48.198;11.468;2023-04-06T00:48:08;12.77;;;6.10;;
79574;SDS011;69044;48.198;11.468;2023-04-06T00:50:35;10.52;;;5.95;;
79574;SDS011;69044;48.198;11.468;2023-04-06T00:53:03;14.68;;;6.65;;
79574;SDS011;69044;48.198;11.468;2023-04-06T00:55:30;11.77;;;6.40;;
79574;SDS011;69044;48.198;11.468;2023-04-06T00:57:58;11.90;;;6.55;;
79574;SDS011;69044;48.198;11.468;2023-04-06T01:00:27;9.93;;;6.38;;
79574;SDS011;69044;48.198;11.468;2023-04-06T01:02:59;11.18;;;6.50;;
79574;SDS011;69044;48.198;11.468;2023-04-06T01:05:35;9.52;;;5.60;;
79574;SDS011;69044;48.198;11.468;2023-04-06T01:08:08;10.40;;;5.57;;
79574;SDS011;69044;48.198;11.468;2023-04-06T01:10:36;13.85;;;6.85;;
79574;SDS011;69044;48.198;11.468;2023-04-06T01:13:13;11.82;;;6.60;;
79574;SDS011;69044;48.198;11.468;2023-04-06T01:16:00;12.23;;;5.88;;
79574;SDS011;69044;48.198;11.468;2023-04-06T01:18:37;12.05;;;6.28;;
79574;SDS011;69044;48.198;11.468;2023-04-06T01:21:20;11.20;;;6.45;;
79574;SDS011;69044;48.198;11.468;2023-04-06T01:24:12;10.65;;;6.47;;
79574;SDS011;69044;48.198;11.468;2023-04-06T01:26:55;13.38;;;6.30;;
79574;SDS011;69044;48.198;11.468;2023-04-06T01:29:24;11.10;;;6.15;;
79574;SDS011;69044;48.198;11.468;2023-04-06T01:31:52;11.48;;;6.38;;
79574;SDS011;69044;48.198;11.468;2023-04-06T01:34:19;9.32;;;5.47;;
79574;SDS011;69044;48.198;11.468;2023-04-06T01:36:46;9.23;;;5.05;;
79574;SDS011;69044;48.198;11.468;2023-04-06T01:39:24;8.80;;;5.28;;
79574;SDS011;69044;48.198;11.468;2023-04-06T01:41:51;12.70;;;5.60;;
79574;SDS011;69044;48.198;11.468;2023-04-06T01:44:20;10.02;;;5.57;;
79574;SDS011;69044;48.198;11.468;2023-04-06T01:46:55;10.68;;;6.22;;
79574;SDS011;69044;48.198;11.468;2023-04-06T01:49:22;10.88;;;6.65;;
79574;SDS011;69044;48.198;11.468;2023-04-06T01:51:53;9.45;;;5.00;;
79574;SDS011;69044;48.198;11.468;2023-04-06T01:54:21;9.88;;;5.20;;
79574;SDS011;69044;48.198;11.468;2023-04-06T01:57:07;8.68;;;5.28;;
79574;SDS011;69044;48.198;11.468;2023-04-06T01:59:54;14.13;;;5.88;;
79574;SDS011;69044;48.198;11.468;2023-04-06T02:02:28;8.82;;;4.82;;
79574;SDS011;69044;48.198;11.468;2023-04-06T02:05:00;10.48;;;5.65;;
79574;SDS011;69044;48.198;11.468;2023-04-06T02:07:28;10.20;;;5.47;;
79574;SDS011;69044;48.198;11.468;2023-04-06T02:09:56;8.02;;;5.47;;
79574;SDS011;69044;48.198;11.468;2023-04-06T02:12:36;9.23;;;5.43;;
79574;SDS011;69044;48.198;11.468;2023-04-06T02:15:05;9.30;;;5.45;;
79574;SDS011;69044;48.198;11.468;2023-04-06T02:17:33;8.85;;;5.43;;
79574;SDS011;69044;48.198;11.468;2023-04-06T02:20:00;10.98;;;5.13;;
79574;SDS011;69044;48.198;11.468;2023-04-06T02:22:27;8.30;;;5.20;;
79574;SDS011;69044;48.198;11.468;2023-04-06T02:24:54;9.32;;;5.05;;
79574;SDS011;69044;48.198;11.468;2023-04-06T02:27:21;11.38;;;5.35;;
79574;SDS011;69044;48.198;11.468;2023-04-06T02:29:50;7.60;;;4.78;;
79574;SDS011;69044;48.198;11.468;2023-04-06T02:32:19;8.20;;;5.20;;
79574;SDS011;69044;48.198;11.468;2023-04-06T02:34:47;9.40;;;4.82;;
79574;SDS011;69044;48.198;11.468;2023-04-06T02:39:43;6.97;;;4.70;;
79574;SDS011;69044;48.198;11.468;2023-04-06T02:42:10;8.38;;;4.95;;
79574;SDS011;69044;48.198;11.468;2023-04-06T02:44:38;9.02;;;5.53;;
79574;SDS011;69044;48.198;11.468;2023-04-06T02:47:06;9.77;;;5.15;;
79574;SDS011;69044;48.198;11.468;2023-04-06T02:49:34;8.15;;;4.68;;
79574;SDS011;69044;48.198;11.468;2023-04-06T02:52:02;7.78;;;4.25;;
79574;SDS011;69044;48.198;11.468;2023-04-06T02:54:33;8.20;;;4.72;;
79574;SDS011;69044;48.198;11.468;2023-04-06T02:57:02;9.40;;;5.47;;
79574;SDS011;69044;48.198;11.468;2023-04-06T02:59:38;8.30;;;5.43;;
79574;SDS011;69044;48.198;11.468;2023-04-06T03:02:16;8.10;;;5.05;;
79574;SDS011;69044;48.198;11.468;2023-04-06T03:04:43;8.23;;;4.22;;
79574;SDS011;69044;48.198;11.468;2023-04-06T03:07:20;8.20;;;5.13;;
79574;SDS011;69044;48.198;11.468;2023-04-06T03:09:47;7.90;;;4.78;;
79574;SDS011;69044;48.198;11.468;2023-04-06T03:12:16;8.90;;;5.18;;
79574;SDS011;69044;48.198;11.468;2023-04-06T03:15:13;10.40;;;5.03;;
79574;SDS011;69044;48.198;11.468;2023-04-06T03:17:46;8.40;;;5.07;;
79574;SDS011;69044;48.198;11.468;2023-04-06T03:20:30;8.52;;;4.65;;
79574;SDS011;69044;48.198;11.468;2023-04-06T03:22:57;7.28;;;4.45;;
79574;SDS011;69044;48.198;11.468;2023-04-06T03:25:28;7.93;;;4.88;;
79574;SDS011;69044;48.198;11.468;2023-04-06T03:28:00;9.07;;;5.03;;
79574;SDS011;69044;48.198;11.468;2023-04-06T03:30:27;8.00;;;4.43;;
79574;SDS011;69044;48.198;11.468;2023-04-06T03:32:57;8.98;;;4.82;;
79574;SDS011;69044;48.198;11.468;2023-04-06T03:35:27;9.85;;;4.57;;
79574;SDS011;69044;48.198;11.468;2023-04-06T03:37:56;8.43;;;5.03;;
79574;SDS011;69044;48.198;11.468;2023-04-06T03:40:25;9.80;;;5.18;;
79574;SDS011;69044;48.198;11.468;2023-04-06T03:42:52;8.70;;;4.82;;
79574;SDS011;69044;48.198;11.468;2023-04-06T03:45:19;9.48;;;4.85;;
79574;SDS011;69044;48.198;11.468;2023-04-06T03:47:49;12.15;;;5.68;;
79574;SDS011;69044;48.198;11.468;2023-04-06T03:50:19;8.13;;;5.05;;
79574;SDS011;69044;48.198;11.468;2023-04-06T03:52:46;8.30;;;4.68;;
79574;SDS011;69044;48.198;11.468;2023-04-06T03:55:13;8.43;;;4.47;;
79574;SDS011;69044;48.198;11.468;2023-04-06T03:57:41;8.85;;;4.65;;
79574;SDS011;69044;48.198;11.468;2023-04-06T04:00:08;9.90;;;5.22;;
79574;SDS011;69044;48.198;11.468;2023-04-06T04:02:39;12.55;;;5.90;;
79574;SDS011;69044;48.198;11.468;2023-04-06T04:05:07;10.05;;;5.00;;
79574;SDS011;69044;48.198;11.468;2023-04-06T04:07:37;8.27;;;4.80;;
79574;SDS011;69044;48.198;11.468;2023-04-06T04:10:06;11.63;;;4.85;;
79574;SDS011;69044;48.198;11.468;2023-04-06T04:12:34;9.25;;;4.93;;
79574;SDS011;69044;48.198;11.468;2023-04-06T04:15:01;10.75;;;5.95;;
79574;SDS011;69044;48.198;11.468;2023-04-06T04:17:29;10.98;;;5.65;;
79574;SDS011;69044;48.198;11.468;2023-04-06T04:19:56;11.50;;;6.07;;
79574;SDS011;69044;48.198;11.468;2023-04-06T04:22:24;9.10;;;5.20;;
79574;SDS011;69044;48.198;11.468;2023-04-06T04:24:54;9.40;;;5.25;;
79574;SDS011;69044;48.198;11.468;2023-04-06T04:27:22;9.80;;;4.97;;
79574;SDS011;69044;48.198;11.468;2023-04-06T04:29:50;8.95;;;4.63;;
79574;SDS011;69044;48.198;11.468;2023-04-06T04:32:17;9.30;;;5.35;;
79574;SDS011;69044;48.198;11.468;2023-04-06T04:34:45;7.78;;;4.68;;
79574;SDS011;69044;48.198;11.468;2023-04-06T04:39:56;9.30;;;5.07;;
79574;SDS011;69044;48.198;11.468;2023-04-06T04:42:24;10.60;;;5.22;;
79574;SDS011;69044;48.198;11.468;2023-04-06T04:44:54;7.60;;;4.72;;
79574;SDS011;69044;48.198;11.468;2023-04-06T04:47:32;8.70;;;4.93;;
79574;SDS011;69044;48.198;11.468;2023-04-06T04:50:00;7.85;;;4.85;;
79574;SDS011;69044;48.198;11.468;2023-04-06T04:52:28;9.63;;;5.10;;
79574;SDS011;69044;48.198;11.468;2023-04-06T04:55:10;8.55;;;5.00;;
79574;SDS011;69044;48.198;11.468;2023-04-06T04:57:38;10.55;;;5.75;;
79574;SDS011;69044;48.198;11.468;2023-04-06T05:00:05;9.70;;;5.53;;
79574;SDS011;69044;48.198;11.468;2023-04-06T05:02:35;9.35;;;5.40;;
79574;SDS011;69044;48.198;11.468;2023-04-06T05:05:16;12.93;;;5.47;;
79574;SDS011;69044;48.198;11.468;2023-04-06T05:07:43;7.93;;;5.07;;
79574;SDS011;69044;48.198;11.468;2023-04-06T05:10:20;12.63;;;5.80;;
79574;SDS011;69044;48.198;11.468;2023-04-06T05:12:55;11.93;;;6.28;;
79574;SDS011;69044;48.198;11.468;2023-04-06T05:15:22;10.13;;;5.20;;
79574;SDS011;69044;48.198;11.468;2023-04-06T05:17:53;10.32;;;5.70;;
79574;SDS011;69044;48.198;11.468;2023-04-06T05:20:27;10.45;;;5.10;;
79574;SDS011;69044;48.198;11.468;2023-04-06T05:22:55;10.93;;;5.50;;
79574;SDS011;69044;48.198;11.468;2023-04-06T05:25:23;9.77;;;4.90;;
79574;SDS011;69044;48.198;11.468;2023-04-06T05:27:53;10.50;;;5.47;;
79574;SDS011;69044;48.198;11.468;2023-04-06T05:30:28;11.70;;;5.65;;
79574;SDS011;69044;48.198;11.468;2023-04-06T05:32:59;10.48;;;5.50;;
79574;SDS011;69044;48.198;11.468;2023-04-06T05:35:34;15.18;;;5.97;;
79574;SDS011;69044;48.198;11.468;2023-04-06T05:38:26;13.27;;;6.10;;
79574;SDS011;69044;48.198;11.468;2023-04-06T05:40:58;10.68;;;5.80;;
79574;SDS011;69044;48.198;11.468;2023-04-06T05:43:29;14.85;;;6.50;;
79574;SDS011;69044;48.198;11.468;2023-04-06T05:45:58;10.20;;;6.13;;
79574;SDS011;69044;48.198;11.468;2023-04-06T05:48:25;12.45;;;6.63;;
79574;SDS011;69044;48.198;11.468;2023-04-06T05:50:53;9.70;;;5.93;;
79574;SDS011;69044;48.198;11.468;2023-04-06T05:53:26;10.63;;;5.57;;
79574;SDS011;69044;48.198;11.468;2023-04-06T05:56:00;13.68;;;6.97;;
79574;SDS011;69044;48.198;11.468;2023-04-06T05:58:27;11.73;;;6.25;;
79574;SDS011;69044;48.198;11.468;2023-04-06T06:00:56;11.85;;;6.40;;
79574;SDS011;69044;48.198;11.468;2023-04-06T06:03:24;10.38;;;5.43;;
79574;SDS011;69044;48.198;11.468;2023-04-06T06:05:58;11.48;;;5.50;;
79574;SDS011;69044;48.198;11.468;2023-04-06T06:08:32;13.38;;;5.75;;
79574;SDS011;69044;48.198;11.468;2023-04-06T06:11:04;12.27;;;5.53;;
79574;SDS011;69044;48.198;11.468;2023-04-06T06:13:31;12.65;;;5.45;;
79574;SDS011;69044;48.198;11.468;2023-04-06T06:15:59;12.07;;;6.20;;
79574;SDS011;69044;48.198;11.468;2023-04-06T06:18:31;9.38;;;5.75;;
79574;SDS011;69044;48.198;11.468;2023-04-06T06:20:58;10.82;;;6.05;;
79574;SDS011;69044;48.198;11.468;2023-04-06T06:23:26;11.57;;;6.25;;
79574;SDS011;69044;48.198;11.468;2023-04-06T06:25:53;11.88;;;5.78;;
79574;SDS011;69044;48.198;11.468;2023-04-06T06:28:25;11.50;;;6.15;;
79574;SDS011;69044;48.198;11.468;2023-04-06T06:30:52;13.23;;;6.63;;
79574;SDS011;69044;48.198;11.468;2023-04-06T06:33:22;14.35;;;6.78;;
79574;SDS011;69044;48.198;11.468;2023-04-06T06:35:52;10.88;;;5.90;;
79574;SDS011;69044;48.198;11.468;2023-04-06T06:38:19;12.30;;;5.53;;
79574;SDS011;69044;48.198;11.468;2023-04-06T06:40:46;11.73;;;6.97;;
79574;SDS011;69044;48.198;11.468;2023-04-06T06:43:16;12.70;;;6.47;;
79574;SDS011;69044;48.198;11.468;2023-04-06T06:46:08;12.60;;;7.00;;
79574;SDS011;69044;48.198;11.468;2023-04-06T06:48:35;15.18;;;7.95;;
79574;SDS011;69044;48.198;11.468;2023-04-06T06:51:03;12.98;;;7.82;;
79574;SDS011;69044;48.198;11.468;2023-04-06T06:53:30;12.52;;;5.97;;
79574;SDS011;69044;48.198;11.468;2023-04-06T06:55:57;12.40;;;6.75;;
79574;SDS011;69044;48.198;11.468;2023-04-06T06:58:25;10.95;;;6.35;;
79574;SDS011;69044;48.198;11.468;2023-04-06T07:00:55;11.70;;;6.93;;
79574;SDS011;69044;48.198;11.468;2023-04-06T07:03:24;13.60;;;6.63;;
79574;SDS011;69044;48.198;11.468;2023-04-06T07:05:51;11.60;;;6.78;;
79574;SDS011;69044;48.198;11.468;2023-04-06T07:08:20;14.00;;;6.43;;
79574;SDS011;69044;48.198;11.468;2023-04-06T07:10:47;11.50;;;6.43;;
79574;SDS011;69044;48.198;11.468;2023-04-06T07:13:18;11.02;;;6.45;;
79574;SDS011;69044;48.198;11.468;2023-04-06T07:15:52;13.35;;;6.38;;
79574;SDS011;69044;48.198;11.468;2023-04-06T07:18:19;10.60;;;5.80;;
79574;SDS011;69044;48.198;11.468;2023-04-06T07:20:48;11.50;;;7.07;;
79574;SDS011;69044;48.198;11.468;2023-04-06T07:23:16;8.40;;;6.30;;
79574;SDS011;69044;48.198;11.468;2023-04-06T07:25:44;13.07;;;7.18;;
79574;SDS011;69044;48.198;11.468;2023-04-06T07:28:12;11.50;;;7.07;;
79574;SDS011;69044;48.198;11.468;2023-04-06T07:30:41;15.23;;;7.15;;
79574;SDS011;69044;48.198;11.468;2023-04-06T07:33:10;14.23;;;7.57;;
79574;SDS011;69044;48.198;11.468;2023-04-06T07:35:38;17.63;;;9.68;;
79574;SDS011;69044;48.198;11.468;2023-04-06T07:38:08;14.00;;;7.65;;
79574;SDS011;69044;48.198;11.468;2023-04-06T07:40:35;12.32;;;7.30;;
79574;SDS011;69044;48.198;11.468;2023-04-06T07:43:03;13.77;;;7.63;;
79574;SDS011;69044;48.198;11.468;2023-04-06T07:45:30;12.35;;;7.15;;
79574;SDS011;69044;48.198;11.468;2023-04-06T07:48:01;14.25;;;7.43;;
79574;SDS011;69044;48.198;11.468;2023-04-06T07:50:29;11.55;;;6.78;;
79574;SDS011;69044;48.198;11.468;2023-04-06T07:52:57;12.32;;;7.40;;
79574;SDS011;69044;48.198;11.468;2023-04-06T07:55:28;12.77;;;6.78;;
79574;SDS011;69044;48.198;11.468;2023-04-06T07:57:55;13.02;;;7.15;;
79574;SDS011;69044;48.198;11.468;2023-04-06T08:00:22;13.63;;;7.60;;
79574;SDS011;69044;48.198;11.468;2023-04-06T08:02:49;12.50;;;7.20;;
79574;SDS011;69044;48.198;11.468;2023-04-06T08:05:16;11.32;;;7.10;;
79574;SDS011;69044;48.198;11.468;2023-04-06T08:07:44;14.43;;;7.43;;
79574;SDS011;69044;48.198;11.468;2023-04-06T08:10:11;10.13;;;6.28;;
79574;SDS011;69044;48.198;11.468;2023-04-06T08:12:40;12.25;;;6.10;;
79574;SDS011;69044;48.198;11.468;2023-04-06T08:15:07;13.95;;;6.22;;
79574;SDS011;69044;48.198;11.468;2023-04-06T08:17:34;11.13;;;6.78;;
79574;SDS011;69044;48.198;11.468;2023-04-06T08:20:01;9.93;;;6.63;;
79574;SDS011;69044;48.198;11.468;2023-04-06T08:22:30;12.35;;;7.18;;
79574;SDS011;69044;48.198;11.468;2023-04-06T08:24:57;12.63;;;7.38;;
79574;SDS011;69044;48.198;11.468;2023-04-06T08:27:50;10.45;;;6.53;;
79574;SDS011;69044;48.198;11.468;2023-04-06T08:30:17;12.00;;;5.90;;
79574;SDS011;69044;48.198;11.468;2023-04-06T08:32:45;11.25;;;6.35;;
79574;SDS011;69044;48.198;11.468;2023-04-06T08:35:12;11.52;;;6.30;;
79574;SDS011;69044;48.198;11.468;2023-04-06T08:37:39;10.32;;;6.03;;
79574;SDS011;69044;48.198;11.468;2023-04-06T08:40:07;9.20;;;5.72;;
79574;SDS011;69044;48.198;11.468;2023-04-06T08:42:37;13.10;;;7.47;;
79574;SDS011;69044;48.198;11.468;2023-04-06T08:45:08;11.23;;;6.63;;
79574;SDS011;69044;48.198;11.468;2023-04-06T08:47:36;11.07;;;6.65;;
79574;SDS011;69044;48.198;11.468;2023-04-06T08:50:03;12.02;;;6.18;;
79574;SDS011;69044;48.198;11.468;2023-04-06T08:52:32;12.05;;;6.65;;
79574;SDS011;69044;48.198;11.468;2023-04-06T08:54:59;13.55;;;7.28;;
79574;SDS011;69044;48.198;11.468;2023-04-06T08:57:26;10.93;;;6.47;;
79574;SDS011;69044;48.198;11.468;2023-04-06T08:59:53;11.07;;;6.18;;
79574;SDS011;69044;48.198;11.468;2023-04-06T09:02:22;11.55;;;6.55;;
79574;SDS011;69044;48.198;11.468;2023-04-06T09:04:52;10.23;;;6.07;;
79574;SDS011;69044;48.198;11.468;2023-04-06T09:07:20;11.10;;;6.65;;
79574;SDS011;69044;48.198;11.468;2023-04-06T09:09:52;11.43;;;6.07;;
79574;SDS011;69044;48.198;11.468;2023-04-06T09:12:23;9.27;;;5.72;;
79574;SDS011;69044;48.198;11.468;2023-04-06T09:14:51;10.45;;;5.88;;
79574;SDS011;69044;48.198;11.468;2023-04-06T09:17:22;11.63;;;6.80;;
79574;SDS011;69044;48.198;11.468;2023-04-06T09:19:50;11.88;;;6.55;;
79574;SDS011;69044;48.198;11.468;2023-04-06T09:22:18;12.13;;;6.22;;
79574;SDS011;69044;48.198;11.468;2023-04-06T09:24:46;10.80;;;6.07;;
79574;SDS011;69044;48.198;11.468;2023-04-06T09:27:14;11.60;;;6.35;;
79574;SDS011;69044;48.198;11.468;2023-04-06T09:29:41;70.25;;;9.32;;
79574;SDS011;69044;48.198;11.468;2023-04-06T09:32:09;11.45;;;6.32;;
79574;SDS011;69044;48.198;11.468;2023-04-06T09:34:43;11.48;;;6.30;;
79574;SDS011;69044;48.198;11.468;2023-04-06T09:37:14;11.65;;;6.72;;
79574;SDS011;69044;48.198;11.468;2023-04-06T09:39:41;14.40;;;6.55;;
79574;SDS011;69044;48.198;11.468;2023-04-06T09:42:08;11.35;;;6.43;;
79574;SDS011;69044;48.198;11.468;2023-04-06T09:44:36;9.35;;;5.53;;
79574;SDS011;69044;48.198;11.468;2023-04-06T09:47:03;9.60;;;6.05;;
79574;SDS011;69044;48.198;11.468;2023-04-06T09:49:33;11.27;;;6.25;;
79574;SDS011;69044;48.198;11.468;2023-04-06T09:52:02;13.35;;;6.60;;
79574;SDS011;69044;48.198;11.468;2023-04-06T09:54:30;11.27;;;7.32;;
79574;SDS011;69044;48.198;11.468;2023-04-06T09:57:01;11.48;;;6.60;;
79574;SDS011;69044;48.198;11.468;2023-04-06T09:59:35;10.95;;;6.97;;
79574;SDS011;69044;48.198;11.468;2023-04-06T10:02:07;10.40;;;6.40;;
79574;SDS011;69044;48.198;11.468;2023-04-06T10:04:36;11.23;;;7.13;;
79574;SDS011;69044;48.198;11.468;2023-04-06T10:07:07;10.68;;;6.47;;
79574;SDS011;69044;48.198;11.468;2023-04-06T10:09:35;14.15;;;7.05;;
79574;SDS011;69044;48.198;11.468;2023-04-06T10:12:03;10.65;;;6.28;;
79574;SDS011;69044;48.198;11.468;2023-04-06T10:14:31;9.65;;;5.85;;
79574;SDS011;69044;48.198;11.468;2023-04-06T10:16:59;10.05;;;6.60;;
79574;SDS011;69044;48.198;11.468;2023-04-06T10:19:28;11.50;;;6.45;;
79574;SDS011;69044;48.198;11.468;2023-04-06T10:22:02;13.98;;;7.13;;
79574;SDS011;69044;48.198;11.468;2023-04-06T10:24:31;10.20;;;6.25;;
79574;SDS011;69044;48.198;11.468;2023-04-06T10:27:29;11.18;;;6.85;;
79574;SDS011;69044;48.198;11.468;2023-04-06T10:30:22;11.13;;;6.80;;
79574;SDS011;69044;48.198;11.468;2023-04-06T10:32:50;10.98;;;6.75;;
79574;SDS011;69044;48.198;11.468;2023-04-06T10:35:17;13.10;;;7.38;;
79574;SDS011;69044;48.198;11.468;2023-04-06T10:37:45;13.02;;;7.60;;
79574;SDS011;69044;48.198;11.468;2023-04-06T10:40:24;10.00;;;6.63;;
79574;SDS011;69044;48.198;11.468;2023-04-06T10:42:52;10.73;;;6.65;;
79574;SDS011;69044;48.198;11.468;2023-04-06T10:45:21;10.95;;;6.78;;
79574;SDS011;69044;48.198;11.468;2023-04-06T10:47:49;11.10;;;7.28;;
79574;SDS011;69044;48.198;11.468;2023-04-06T10:50:16;12.82;;;6.90;;
79574;SDS011;69044;48.198;11.468;2023-04-06T10:52:44;11.07;;;7.18;;
79574;SDS011;69044;48.198;11.468;2023-04-06T10:55:12;9.65;;;5.78;;
79574;SDS011;69044;48.198;11.468;2023-04-06T10:57:42;11.15;;;7.22;;
79574;SDS011;69044;48.198;11.468;2023-04-06T11:00:11;9.57;;;6.47;;
79574;SDS011;69044;48.198;11.468;2023-04-06T11:02:39;11.80;;;6.20;;
79574;SDS011;69044;48.198;11.468;2023-04-06T11:05:06;13.07;;;7.50;;
79574;SDS011;69044;48.198;11.468;2023-04-06T11:07:34;10.20;;;6.95;;
79574;SDS011;69044;48.198;11.468;2023-04-06T11:10:01;10.25;;;6.97;;
79574;SDS011;69044;48.198;11.468;2023-04-06T11:12:28;10.60;;;6.65;;
79574;SDS011;69044;48.198;11.468;2023-04-06T11:14:58;9.65;;;6.70;;
79574;SDS011;69044;48.198;11.468;2023-04-06T11:17:28;8.57;;;5.47;;
79574;SDS011;69044;48.198;11.468;2023-04-06T11:19:55;11.35;;;6.80;;
79574;SDS011;69044;48.198;11.468;2023-04-06T11:22:22;11.60;;;7.40;;
79574;SDS011;69044;48.198;11.468;2023-04-06T11:24:50;9.82;;;6.70;;
79574;SDS011;69044;48.198;11.468;2023-04-06T11:27:17;10.70;;;6.97;;
79574;SDS011;69044;48.198;11.468;2023-04-06T11:29:44;9.68;;;5.88;;
79574;SDS011;69044;48.198;11.468;2023-04-06T11:32:19;11.15;;;6.10;;
79574;SDS011;69044;48.198;11.468;2023-04-06T11:34:47;12.13;;;6.97;;
79574;SDS011;69044;48.198;11.468;2023-04-06T11:37:15;8.75;;;6.43;;
79574;SDS011;69044;48.198;11.468;2023-04-06T11:39:43;8.80;;;5.57;;
79574;SDS011;69044;48.198;11.468;2023-04-06T11:42:20;8.63;;;5.65;;
79574;SDS011;69044;48.198;11.468;2023-04-06T11:44:49;10.27;;;6.30;;
79574;SDS011;69044;48.198;11.468;2023-04-06T11:47:19;9.23;;;6.15;;
79574;SDS011;69044;48.198;11.468;2023-04-06T11:49:48;10.60;;;6.25;;
79574;SDS011;69044;48.198;11.468;2023-04-06T11:52:16;10.07;;;6.60;;
79574;SDS011;69044;48.198;11.468;2023-04-06T11:54:44;9.77;;;5.97;;
79574;SDS011;69044;48.198;11.468;2023-04-06T11:57:12;12.43;;;6.57;;
79574;SDS011;69044;48.198;11.468;2023-04-06T11:59:40;2.78;;;1.80;;
79574;SDS011;69044;48.198;11.468;2023-04-06T12:02:07;3.88;;;2.47;;
79574;SDS011;69044;48.198;11.468;2023-04-06T12:04:36;3.38;;;1.90;;
79574;SDS011;69044;48.198;11.468;2023-04-06T12:07:03;2.45;;;1.50;;
79574;SDS011;69044;48.198;11.468;2023-04-06T12:09:31;4.03;;;2.10;;
79574;SDS011;69044;48.198;11.468;2023-04-06T12:11:58;2.83;;;1.77;;
79574;SDS011;69044;48.198;11.468;2023-04-06T12:14:25;2.92;;;1.70;;
79574;SDS011;69044;48.198;11.468;2023-04-06T12:16:52;2.83;;;1.75;;
79574;SDS011;69044;48.198;11.468;2023-04-06T12:19:19;8.68;;;5.45;;
79574;SDS011;69044;48.198;11.468;2023-04-06T12:21:48;6.50;;;4.40;;
79574;SDS011;69044;48.198;11.468;2023-04-06T12:24:15;9.15;;;5.03;;
79574;SDS011;69044;48.198;11.468;2023-04-06T12:26:42;6.82;;;5.03;;
79574;SDS011;69044;48.198;11.468;2023-04-06T12:29:09;8.05;;;5.20;;
79574;SDS011;69044;48.198;11.468;2023-04-06T12:31:38;8.50;;;6.05;;
79574;SDS011;69044;48.198;11.468;2023-04-06T12:34:06;8.27;;;5.47;;
79574;SDS011;69044;48.198;11.468;2023-04-06T12:36:33;7.82;;;5.22;;
79574;SDS011;69044;48.198;11.468;2023-04-06T12:39:02;8.60;;;5.47;;
79574;SDS011;69044;48.198;11.468;2023-04-06T12:41:29;9.13;;;6.15;;
79574;SDS011;69044;48.198;11.468;2023-04-06T12:43:58;8.35;;;5.38;;
79574;SDS011;69044;48.198;11.468;2023-04-06T12:46:26;8.80;;;5.70;;
79574;SDS011;69044;48.198;11.468;2023-04-06T12:48:55;6.82;;;4.82;;
79574;SDS011;69044;48.198;11.468;2023-04-06T12:51:23;7.50;;;4.65;;
79574;SDS011;69044;48.198;11.468;2023-04-06T12:53:50;7.20;;;5.05;;
79574;SDS011;69044;48.198;11.468;2023-04-06T12:56:19;7.40;;;4.82;;
79574;SDS011;69044;48.198;11.468;2023-04-06T12:58:46;6.55;;;4.28;;
79574;SDS011;69044;48.198;11.468;2023-04-06T13:01:14;8.65;;;5.53;;
79574;SDS011;69044;48.198;11.468;2023-04-06T13:03:41;6.93;;;4.25;;
79574;SDS011;69044;48.198;11.468;2023-04-06T13:06:09;7.93;;;5.05;;
79574;SDS011;69044;48.198;11.468;2023-04-06T13:08:36;8.48;;;5.05;;
79574;SDS011;69044;48.198;11.468;2023-04-06T13:11:04;7.40;;;4.88;;
79574;SDS011;69044;48.198;11.468;2023-04-06T13:13:35;7.13;;;5.32;;
79574;SDS011;69044;48.198;11.468;2023-04-06T13:16:03;7.97;;;5.03;;
79574;SDS011;69044;48.198;11.468;2023-04-06T13:18:31;7.90;;;5.03;;
79574;SDS011;69044;48.198;11.468;2023-04-06T13:20:59;7.53;;;4.78;;
79574;SDS011;69044;48.198;11.468;2023-04-06T13:23:27;7.28;;;4.65;;
79574;SDS011;69044;48.198;11.468;2023-04-06T13:25:57;8.38;;;5.07;;
79574;SDS011;69044;48.198;11.468;2023-04-06T13:30:57;8.88;;;6.07;;
79574;SDS011;69044;48.198;11.468;2023-04-06T13:33:25;7.07;;;4.95;;
79574;SDS011;69044;48.198;11.468;2023-04-06T13:35:52;6.72;;;4.63;;
79574;SDS011;69044;48.198;11.468;2023-04-06T13:38:19;7.53;;;4.65;;
79574;SDS011;69044;48.198;11.468;2023-04-06T13:40:46;8.98;;;5.35;;
79574;SDS011;69044;48.198;11.468;2023-04-06T13:43:13;7.75;;;4.80;;
79574;SDS011;69044;48.198;11.468;2023-04-06T13:45:41;8.57;;;5.28;;
79574;SDS011;69044;48.198;11.468;2023-04-06T13:48:09;8.25;;;4.43;;
79574;SDS011;69044;48.198;11.468;2023-04-06T13:50:36;6.35;;;4.47;;
79574;SDS011;69044;48.198;11.468;2023-04-06T13:53:03;7.28;;;4.65;;
79574;SDS011;69044;48.198;11.468;2023-04-06T13:55:34;6.82;;;4.63;;
79574;SDS011;69044;48.198;11.468;2023-04-06T13:58:01;8.68;;;4.68;;
79574;SDS011;69044;48.198;11.468;2023-04-06T14:00:28;8.93;;;5.15;;
79574;SDS011;69044;48.198;11.468;2023-04-06T14:02:56;6.45;;;4.82;;
79574;SDS011;69044;48.198;11.468;2023-04-06T14:05:24;7.18;;;4.63;;
79574;SDS011;69044;48.198;11.468;2023-04-06T14:07:53;6.05;;;4.00;;
79574;SDS011;69044;48.198;11.468;2023-04-06T14:10:21;7.10;;;4.22;;
79574;SDS011;69044;48.198;11.468;2023-04-06T14:17:43;5.07;;;3.55;;
79574;SDS011;69044;48.198;11.468;2023-04-06T14:20:10;6.40;;;4.47;;
79574;SDS011;69044;48.198;11.468;2023-04-06T14:22:41;8.90;;;4.28;;
79574;SDS011;69044;48.198;11.468;2023-04-06T14:25:09;6.32;;;4.47;;
79574;SDS011;69044;48.198;11.468;2023-04-06T14:27:36;8.65;;;5.10;;
79574;SDS011;69044;48.198;11.468;2023-04-06T14:30:04;7.18;;;4.53;;
79574;SDS011;69044;48.198;11.468;2023-04-06T14:32:32;7.38;;;4.90;;
79574;SDS011;69044;48.198;11.468;2023-04-06T14:34:59;7.40;;;4.32;;
79574;SDS011;69044;48.198;11.468;2023-04-06T14:37:26;6.50;;;4.55;;
79574;SDS011;69044;48.198;11.468;2023-04-06T14:39:54;6.18;;;3.85;;
79574;SDS011;69044;48.198;11.468;2023-04-06T14:42:21;8.90;;;5.30;;
79574;SDS011;69044;48.198;11.468;2023-04-06T14:44:49;6.93;;;4.55;;
79574;SDS011;69044;48.198;11.468;2023-04-06T14:47:16;5.75;;;4.03;;
79574;SDS011;69044;48.198;11.468;2023-04-06T14:49:46;8.55;;;4.03;;
79574;SDS011;69044;48.198;11.468;2023-04-06T14:52:13;5.18;;;3.97;;
79574;SDS011;69044;48.198;11.468;2023-04-06T14:54:41;6.10;;;4.03;;